sensor_id;sensor_type;location;lat;lon;timestamp;P1;durP1;ratioP1;P2;durP2;ratioP2
63120;SDS011;54478;48.684;20.114;2023-03-30T00:01:16;17.92;;;6.03;;
63120;SDS011;54478;48.684;20.114;2023-03-30T00:03:45;15.32;;;6.28;;
63120;SDS011;54478;48.684;20.114;2023-03-30T00:06:15;11.82;;;6.03;;
63120;SDS011;54478;48.684;20.114;2023-03-30T00:08:50;17.33;;;5.85;;
63120;SDS011;54478;48.684;20.114;2023-03-30T00:11:18;16.63;;;7.15;;
63120;SDS011;54478;48.684;20.114;2023-03-30T00:13:50;22.10;;;9.30;;
63120;SDS011;54478;48.684;20.114;2023-03-30T00:16:19;16.75;;;7.07;;
63120;SDS011;54478;48.684;20.114;2023-03-30T00:18:48;10.25;;;4.68;;
63120;SDS011;54478;48.684;20.114;2023-03-30T00:21:18;16.27;;;6.60;;
63120;SDS011;54478;48.684;20.114;2023-03-30T00:23:47;9.30;;;4.78;;
63120;SDS011;54478;48.684;20.114;2023-03-30T00:26:16;12.52;;;4.88;;
63120;SDS011;54478;48.684;20.114;2023-03-30T00:28:45;12.73;;;5.70;;
63120;SDS011;54478;48.684;20.114;2023-03-30T00:31:13;13.63;;;6.20;;
63120;SDS011;54478;48.684;20.114;2023-03-30T00:33:42;11.95;;;5.47;;
63120;SDS011;54478;48.684;20.114;2023-03-30T00:36:10;9.25;;;4.25;;
63120;SDS011;54478;48.684;20.114;2023-03-30T00:38:39;11.68;;;4.85;;
63120;SDS011;54478;48.684;20.114;2023-03-30T00:41:07;10.95;;;5.43;;
63120;SDS011;54478;48.684;20.114;2023-03-30T00:46:31;11.38;;;4.65;;
63120;SDS011;54478;48.684;20.114;2023-03-30T00:49:03;10.15;;;4.70;;
63120;SDS011;54478;48.684;20.114;2023-03-30T00:51:35;13.07;;;4.78;;
63120;SDS011;54478;48.684;20.114;2023-03-30T00:54:07;12.73;;;4.18;;
63120;SDS011;54478;48.684;20.114;2023-03-30T00:56:36;8.88;;;4.90;;
63120;SDS011;54478;48.684;20.114;2023-03-30T00:59:05;12.52;;;5.07;;
63120;SDS011;54478;48.684;20.114;2023-03-30T01:01:33;8.88;;;4.07;;
63120;SDS011;54478;48.684;20.114;2023-03-30T01:04:05;10.07;;;4.28;;
63120;SDS011;54478;48.684;20.114;2023-03-30T01:06:35;11.05;;;3.80;;
63120;SDS011;54478;48.684;20.114;2023-03-30T01:09:03;14.70;;;4.78;;
63120;SDS011;54478;48.684;20.114;2023-03-30T01:11:33;9.65;;;3.95;;
63120;SDS011;54478;48.684;20.114;2023-03-30T01:14:02;9.45;;;3.88;;
63120;SDS011;54478;48.684;20.114;2023-03-30T01:16:36;17.55;;;4.70;;
63120;SDS011;54478;48.684;20.114;2023-03-30T01:30:42;16.02;;;6.45;;
63120;SDS011;54478;48.684;20.114;2023-03-30T01:39:14;9.07;;;4.10;;
63120;SDS011;54478;48.684;20.114;2023-03-30T01:47:57;7.70;;;3.58;;
63120;SDS011;54478;48.684;20.114;2023-03-30T01:58:38;11.80;;;5.25;;
63120;SDS011;54478;48.684;20.114;2023-03-30T02:01:10;9.77;;;5.05;;
63120;SDS011;54478;48.684;20.114;2023-03-30T02:03:41;7.18;;;3.55;;
63120;SDS011;54478;48.684;20.114;2023-03-30T02:06:19;11.30;;;4.88;;
63120;SDS011;54478;48.684;20.114;2023-03-30T02:08:54;11.68;;;4.55;;
63120;SDS011;54478;48.684;20.114;2023-03-30T02:11:23;10.15;;;5.70;;
63120;SDS011;54478;48.684;20.114;2023-03-30T02:13:53;11.25;;;4.85;;
63120;SDS011;54478;48.684;20.114;2023-03-30T02:16:36;11.43;;;3.95;;
63120;SDS011;54478;48.684;20.114;2023-03-30T02:19:10;7.50;;;4.00;;
63120;SDS011;54478;48.684;20.114;2023-03-30T02:21:36;9.25;;;3.90;;
63120;SDS011;54478;48.684;20.114;2023-03-30T02:24:02;11.48;;;3.70;;
63120;SDS011;54478;48.684;20.114;2023-03-30T02:26:34;10.10;;;4.85;;
63120;SDS011;54478;48.684;20.114;2023-03-30T02:29:03;10.88;;;4.28;;
63120;SDS011;54478;48.684;20.114;2023-03-30T02:31:32;8.75;;;4.18;;
63120;SDS011;54478;48.684;20.114;2023-03-30T02:40:09;14.70;;;4.80;;
63120;SDS011;54478;48.684;20.114;2023-03-30T02:57:21;8.52;;;4.38;;
63120;SDS011;54478;48.684;20.114;2023-03-30T02:59:55;12.45;;;6.45;;
63120;SDS011;54478;48.684;20.114;2023-03-30T03:02:29;19.08;;;8.43;;
63120;SDS011;54478;48.684;20.114;2023-03-30T03:05:02;15.88;;;6.53;;
63120;SDS011;54478;48.684;20.114;2023-03-30T03:07:31;14.43;;;6.18;;
63120;SDS011;54478;48.684;20.114;2023-03-30T03:09:58;12.00;;;5.60;;
63120;SDS011;54478;48.684;20.114;2023-03-30T03:12:26;10.50;;;5.90;;
63120;SDS011;54478;48.684;20.114;2023-03-30T03:14:57;14.98;;;5.90;;
63120;SDS011;54478;48.684;20.114;2023-03-30T03:17:25;14.93;;;6.38;;
63120;SDS011;54478;48.684;20.114;2023-03-30T03:19:56;13.10;;;6.47;;
63120;SDS011;54478;48.684;20.114;2023-03-30T03:22:21;13.05;;;5.90;;
63120;SDS011;54478;48.684;20.114;2023-03-30T03:24:49;13.73;;;6.40;;
63120;SDS011;54478;48.684;20.114;2023-03-30T03:27:17;11.10;;;5.65;;
63120;SDS011;54478;48.684;20.114;2023-03-30T03:29:46;12.15;;;6.15;;
63120;SDS011;54478;48.684;20.114;2023-03-30T03:32:15;17.85;;;6.80;;
63120;SDS011;54478;48.684;20.114;2023-03-30T03:34:43;18.45;;;7.90;;
63120;SDS011;54478;48.684;20.114;2023-03-30T03:37:12;34.83;;;14.55;;
63120;SDS011;54478;48.684;20.114;2023-03-30T03:39:40;30.83;;;13.73;;
63120;SDS011;54478;48.684;20.114;2023-03-30T03:42:10;32.03;;;11.48;;
63120;SDS011;54478;48.684;20.114;2023-03-30T03:44:38;20.67;;;8.98;;
63120;SDS011;54478;48.684;20.114;2023-03-30T03:47:04;15.55;;;6.78;;
63120;SDS011;54478;48.684;20.114;2023-03-30T03:49:33;16.40;;;7.35;;
63120;SDS011;54478;48.684;20.114;2023-03-30T03:52:01;13.93;;;6.88;;
63120;SDS011;54478;48.684;20.114;2023-03-30T03:54:30;17.30;;;6.00;;
63120;SDS011;54478;48.684;20.114;2023-03-30T03:56:58;13.25;;;5.90;;
63120;SDS011;54478;48.684;20.114;2023-03-30T03:59:28;12.98;;;5.07;;
63120;SDS011;54478;48.684;20.114;2023-03-30T04:01:57;16.55;;;5.75;;
63120;SDS011;54478;48.684;20.114;2023-03-30T04:04:25;11.23;;;5.63;;
63120;SDS011;54478;48.684;20.114;2023-03-30T04:06:53;10.70;;;4.75;;
63120;SDS011;54478;48.684;20.114;2023-03-30T04:09:23;12.10;;;6.68;;
63120;SDS011;54478;48.684;20.114;2023-03-30T04:11:51;12.15;;;5.47;;
63120;SDS011;54478;48.684;20.114;2023-03-30T04:14:20;9.32;;;4.45;;
63120;SDS011;54478;48.684;20.114;2023-03-30T04:16:45;10.23;;;4.45;;
63120;SDS011;54478;48.684;20.114;2023-03-30T04:19:13;29.58;;;11.77;;
63120;SDS011;54478;48.684;20.114;2023-03-30T04:21:42;28.45;;;10.18;;
63120;SDS011;54478;48.684;20.114;2023-03-30T04:24:14;12.63;;;4.78;;
63120;SDS011;54478;48.684;20.114;2023-03-30T04:26:42;41.20;;;14.00;;
63120;SDS011;54478;48.684;20.114;2023-03-30T04:29:15;36.72;;;14.48;;
63120;SDS011;54478;48.684;20.114;2023-03-30T04:31:44;26.20;;;10.45;;
63120;SDS011;54478;48.684;20.114;2023-03-30T04:34:14;30.08;;;14.05;;
63120;SDS011;54478;48.684;20.114;2023-03-30T04:36:42;66.47;;;29.10;;
63120;SDS011;54478;48.684;20.114;2023-03-30T04:39:11;37.95;;;17.75;;
63120;SDS011;54478;48.684;20.114;2023-03-30T04:41:40;45.17;;;19.02;;
63120;SDS011;54478;48.684;20.114;2023-03-30T04:44:08;42.05;;;16.38;;
63120;SDS011;54478;48.684;20.114;2023-03-30T04:46:34;12.75;;;6.30;;
63120;SDS011;54478;48.684;20.114;2023-03-30T04:49:03;9.70;;;5.88;;
63120;SDS011;54478;48.684;20.114;2023-03-30T04:51:32;18.05;;;7.97;;
63120;SDS011;54478;48.684;20.114;2023-03-30T04:54:00;16.77;;;8.48;;
63120;SDS011;54478;48.684;20.114;2023-03-30T04:56:29;12.88;;;4.90;;
63120;SDS011;54478;48.684;20.114;2023-03-30T04:58:57;8.25;;;3.78;;
63120;SDS011;54478;48.684;20.114;2023-03-30T05:01:25;21.65;;;6.97;;
63120;SDS011;54478;48.684;20.114;2023-03-30T05:03:54;15.00;;;6.38;;
63120;SDS011;54478;48.684;20.114;2023-03-30T05:06:22;21.02;;;7.80;;
63120;SDS011;54478;48.684;20.114;2023-03-30T05:08:51;36.95;;;14.10;;
63120;SDS011;54478;48.684;20.114;2023-03-30T05:11:17;36.42;;;14.48;;
63120;SDS011;54478;48.684;20.114;2023-03-30T05:13:45;25.00;;;10.55;;
63120;SDS011;54478;48.684;20.114;2023-03-30T05:16:14;21.85;;;9.13;;
63120;SDS011;54478;48.684;20.114;2023-03-30T05:18:43;27.88;;;12.65;;
63120;SDS011;54478;48.684;20.114;2023-03-30T05:21:11;19.20;;;8.70;;
63120;SDS011;54478;48.684;20.114;2023-03-30T05:23:40;11.60;;;5.22;;
63120;SDS011;54478;48.684;20.114;2023-03-30T05:26:09;12.45;;;5.65;;
63120;SDS011;54478;48.684;20.114;2023-03-30T05:28:38;23.83;;;9.18;;
63120;SDS011;54478;48.684;20.114;2023-03-30T05:31:06;15.68;;;7.45;;
63120;SDS011;54478;48.684;20.114;2023-03-30T05:33:34;22.15;;;7.60;;
63120;SDS011;54478;48.684;20.114;2023-03-30T05:36:03;9.38;;;4.88;;
63120;SDS011;54478;48.684;20.114;2023-03-30T05:38:32;11.23;;;5.22;;
63120;SDS011;54478;48.684;20.114;2023-03-30T05:41:00;19.88;;;6.68;;
63120;SDS011;54478;48.684;20.114;2023-03-30T05:43:29;19.83;;;9.73;;
63120;SDS011;54478;48.684;20.114;2023-03-30T05:45:55;22.50;;;11.65;;
63120;SDS011;54478;48.684;20.114;2023-03-30T05:48:24;15.88;;;8.85;;
63120;SDS011;54478;48.684;20.114;2023-03-30T05:50:52;21.25;;;7.68;;
63120;SDS011;54478;48.684;20.114;2023-03-30T05:53:20;24.35;;;9.75;;
63120;SDS011;54478;48.684;20.114;2023-03-30T05:55:49;23.67;;;10.02;;
63120;SDS011;54478;48.684;20.114;2023-03-30T05:58:17;14.38;;;7.50;;
63120;SDS011;54478;48.684;20.114;2023-03-30T06:00:46;20.38;;;9.85;;
63120;SDS011;54478;48.684;20.114;2023-03-30T06:03:16;35.03;;;10.82;;
63120;SDS011;54478;48.684;20.114;2023-03-30T06:05:44;25.52;;;11.68;;
63120;SDS011;54478;48.684;20.114;2023-03-30T06:08:13;20.98;;;11.07;;
63120;SDS011;54478;48.684;20.114;2023-03-30T06:10:50;24.98;;;10.80;;
63120;SDS011;54478;48.684;20.114;2023-03-30T06:13:17;14.98;;;7.47;;
63120;SDS011;54478;48.684;20.114;2023-03-30T06:15:45;17.83;;;8.85;;
63120;SDS011;54478;48.684;20.114;2023-03-30T06:18:14;85.95;;;33.55;;
63120;SDS011;54478;48.684;20.114;2023-03-30T06:20:45;63.08;;;27.35;;
63120;SDS011;54478;48.684;20.114;2023-03-30T06:23:14;21.10;;;9.82;;
63120;SDS011;54478;48.684;20.114;2023-03-30T06:25:46;34.42;;;13.68;;
63120;SDS011;54478;48.684;20.114;2023-03-30T06:28:17;16.75;;;7.70;;
63120;SDS011;54478;48.684;20.114;2023-03-30T06:30:47;13.23;;;6.22;;
63120;SDS011;54478;48.684;20.114;2023-03-30T06:33:16;14.10;;;7.80;;
63120;SDS011;54478;48.684;20.114;2023-03-30T06:35:46;13.77;;;5.35;;
63120;SDS011;54478;48.684;20.114;2023-03-30T06:38:16;13.48;;;5.82;;
63120;SDS011;54478;48.684;20.114;2023-03-30T06:40:46;23.25;;;7.78;;
63120;SDS011;54478;48.684;20.114;2023-03-30T06:43:16;11.70;;;5.97;;
63120;SDS011;54478;48.684;20.114;2023-03-30T06:45:53;15.43;;;6.35;;
63120;SDS011;54478;48.684;20.114;2023-03-30T06:48:20;17.83;;;6.82;;
63120;SDS011;54478;48.684;20.114;2023-03-30T06:50:51;22.05;;;8.80;;
63120;SDS011;54478;48.684;20.114;2023-03-30T06:53:21;26.60;;;10.70;;
63120;SDS011;54478;48.684;20.114;2023-03-30T06:55:51;14.07;;;7.35;;
63120;SDS011;54478;48.684;20.114;2023-03-30T06:58:20;19.15;;;6.63;;
63120;SDS011;54478;48.684;20.114;2023-03-30T07:00:49;15.88;;;7.72;;
63120;SDS011;54478;48.684;20.114;2023-03-30T07:03:18;8.73;;;4.78;;
63120;SDS011;54478;48.684;20.114;2023-03-30T07:05:49;7.13;;;3.85;;
63120;SDS011;54478;48.684;20.114;2023-03-30T07:08:19;34.72;;;6.25;;
63120;SDS011;54478;48.684;20.114;2023-03-30T07:10:48;10.00;;;5.68;;
63120;SDS011;54478;48.684;20.114;2023-03-30T07:13:16;7.40;;;4.38;;
63120;SDS011;54478;48.684;20.114;2023-03-30T07:15:45;8.13;;;4.50;;
63120;SDS011;54478;48.684;20.114;2023-03-30T07:18:14;9.20;;;4.78;;
63120;SDS011;54478;48.684;20.114;2023-03-30T07:20:43;9.48;;;5.30;;
63120;SDS011;54478;48.684;20.114;2023-03-30T07:23:12;11.50;;;5.70;;
63120;SDS011;54478;48.684;20.114;2023-03-30T07:25:40;10.70;;;5.53;;
63120;SDS011;54478;48.684;20.114;2023-03-30T07:28:09;7.80;;;4.60;;
63120;SDS011;54478;48.684;20.114;2023-03-30T07:30:35;13.10;;;5.72;;
63120;SDS011;54478;48.684;20.114;2023-03-30T07:33:04;15.32;;;6.38;;
63120;SDS011;54478;48.684;20.114;2023-03-30T07:35:32;12.63;;;6.03;;
63120;SDS011;54478;48.684;20.114;2023-03-30T07:38:00;12.55;;;6.03;;
63120;SDS011;54478;48.684;20.114;2023-03-30T07:40:29;13.10;;;6.30;;
63120;SDS011;54478;48.684;20.114;2023-03-30T07:42:58;34.45;;;7.30;;
63120;SDS011;54478;48.684;20.114;2023-03-30T07:45:26;13.70;;;5.60;;
63120;SDS011;54478;48.684;20.114;2023-03-30T07:47:55;11.63;;;6.47;;
63120;SDS011;54478;48.684;20.114;2023-03-30T07:50:23;14.85;;;7.95;;
63120;SDS011;54478;48.684;20.114;2023-03-30T07:52:52;18.23;;;7.40;;
63120;SDS011;54478;48.684;20.114;2023-03-30T07:55:20;16.52;;;7.28;;
63120;SDS011;54478;48.684;20.114;2023-03-30T07:57:49;15.68;;;7.55;;
63120;SDS011;54478;48.684;20.114;2023-03-30T08:00:17;29.48;;;7.88;;
63120;SDS011;54478;48.684;20.114;2023-03-30T08:02:48;15.68;;;5.85;;
63120;SDS011;54478;48.684;20.114;2023-03-30T08:05:16;10.48;;;5.78;;
63120;SDS011;54478;48.684;20.114;2023-03-30T08:07:45;15.40;;;6.20;;
63120;SDS011;54478;48.684;20.114;2023-03-30T08:10:14;11.45;;;5.68;;
63120;SDS011;54478;48.684;20.114;2023-03-30T08:12:42;11.07;;;5.60;;
63120;SDS011;54478;48.684;20.114;2023-03-30T08:15:11;9.13;;;5.18;;
63120;SDS011;54478;48.684;20.114;2023-03-30T08:17:39;14.80;;;8.48;;
63120;SDS011;54478;48.684;20.114;2023-03-30T08:20:08;15.77;;;6.45;;
63120;SDS011;54478;48.684;20.114;2023-03-30T08:22:38;17.05;;;5.30;;
63120;SDS011;54478;48.684;20.114;2023-03-30T08:25:07;19.77;;;5.82;;
63120;SDS011;54478;48.684;20.114;2023-03-30T08:27:36;13.55;;;4.88;;
63120;SDS011;54478;48.684;20.114;2023-03-30T08:30:04;5.80;;;3.55;;
63120;SDS011;54478;48.684;20.114;2023-03-30T08:32:33;8.82;;;5.07;;
63120;SDS011;54478;48.684;20.114;2023-03-30T08:35:02;21.27;;;5.97;;
63120;SDS011;54478;48.684;20.114;2023-03-30T08:37:30;13.82;;;6.65;;
63120;SDS011;54478;48.684;20.114;2023-03-30T08:39:59;16.85;;;7.45;;
63120;SDS011;54478;48.684;20.114;2023-03-30T08:45:20;14.90;;;6.65;;
63120;SDS011;54478;48.684;20.114;2023-03-30T08:47:48;9.50;;;5.22;;
63120;SDS011;54478;48.684;20.114;2023-03-30T08:52:59;12.00;;;5.68;;
63120;SDS011;54478;48.684;20.114;2023-03-30T08:55:29;10.55;;;5.38;;
63120;SDS011;54478;48.684;20.114;2023-03-30T09:00:32;11.65;;;4.57;;
63120;SDS011;54478;48.684;20.114;2023-03-30T09:03:18;12.07;;;5.15;;
63120;SDS011;54478;48.684;20.114;2023-03-30T09:05:54;17.75;;;5.13;;
63120;SDS011;54478;48.684;20.114;2023-03-30T09:08:27;10.87;;;4.43;;
63120;SDS011;54478;48.684;20.114;2023-03-30T09:10:59;13.33;;;4.53;;
63120;SDS011;54478;48.684;20.114;2023-03-30T09:13:33;11.50;;;3.70;;
63120;SDS011;54478;48.684;20.114;2023-03-30T09:16:17;6.82;;;3.67;;
63120;SDS011;54478;48.684;20.114;2023-03-30T09:19:00;10.05;;;3.58;;
63120;SDS011;54478;48.684;20.114;2023-03-30T09:21:30;13.35;;;3.78;;
63120;SDS011;54478;48.684;20.114;2023-03-30T09:23:59;6.90;;;3.33;;
63120;SDS011;54478;48.684;20.114;2023-03-30T09:29:31;6.97;;;3.65;;
63120;SDS011;54478;48.684;20.114;2023-03-30T09:32:09;12.07;;;3.30;;
63120;SDS011;54478;48.684;20.114;2023-03-30T09:34:45;11.30;;;4.03;;
63120;SDS011;54478;48.684;20.114;2023-03-30T09:37:15;10.05;;;3.83;;
63120;SDS011;54478;48.684;20.114;2023-03-30T09:39:45;12.13;;;3.92;;
63120;SDS011;54478;48.684;20.114;2023-03-30T09:45:04;11.05;;;4.38;;
63120;SDS011;54478;48.684;20.114;2023-03-30T09:47:39;13.50;;;4.15;;
63120;SDS011;54478;48.684;20.114;2023-03-30T09:50:10;6.57;;;2.70;;
63120;SDS011;54478;48.684;20.114;2023-03-30T09:53:01;7.00;;;3.07;;
63120;SDS011;54478;48.684;20.114;2023-03-30T09:55:33;12.27;;;4.20;;
63120;SDS011;54478;48.684;20.114;2023-03-30T09:58:33;14.40;;;3.80;;
63120;SDS011;54478;48.684;20.114;2023-03-30T10:01:10;10.85;;;3.33;;
63120;SDS011;54478;48.684;20.114;2023-03-30T10:03:41;9.90;;;3.55;;
63120;SDS011;54478;48.684;20.114;2023-03-30T10:06:14;8.23;;;3.20;;
63120;SDS011;54478;48.684;20.114;2023-03-30T10:08:43;5.53;;;2.65;;
63120;SDS011;54478;48.684;20.114;2023-03-30T10:14:49;7.57;;;3.13;;
63120;SDS011;54478;48.684;20.114;2023-03-30T10:17:02;9.32;;;4.40;;
63120;SDS011;54478;48.684;20.114;2023-03-30T10:19:29;11.40;;;4.90;;
63120;SDS011;54478;48.684;20.114;2023-03-30T10:22:01;6.50;;;2.75;;
63120;SDS011;54478;48.684;20.114;2023-03-30T10:24:31;8.00;;;2.70;;
63120;SDS011;54478;48.684;20.114;2023-03-30T10:27:10;6.40;;;2.42;;
63120;SDS011;54478;48.684;20.114;2023-03-30T10:29:43;4.55;;;2.53;;
63120;SDS011;54478;48.684;20.114;2023-03-30T10:32:18;7.47;;;3.20;;
63120;SDS011;54478;48.684;20.114;2023-03-30T10:34:55;4.68;;;2.90;;
63120;SDS011;54478;48.684;20.114;2023-03-30T10:40:14;20.23;;;6.40;;
63120;SDS011;54478;48.684;20.114;2023-03-30T10:42:45;4.80;;;3.20;;
63120;SDS011;54478;48.684;20.114;2023-03-30T10:50:48;7.05;;;3.05;;
63120;SDS011;54478;48.684;20.114;2023-03-30T10:56:36;10.45;;;3.97;;
63120;SDS011;54478;48.684;20.114;2023-03-30T11:02:05;6.80;;;3.58;;
63120;SDS011;54478;48.684;20.114;2023-03-30T11:04:45;5.97;;;3.65;;
63120;SDS011;54478;48.684;20.114;2023-03-30T11:07:46;6.40;;;2.25;;
63120;SDS011;54478;48.684;20.114;2023-03-30T11:10:27;5.35;;;2.38;;
63120;SDS011;54478;48.684;20.114;2023-03-30T11:15:32;7.07;;;4.50;;
63120;SDS011;54478;48.684;20.114;2023-03-30T11:18:18;7.18;;;3.00;;
63120;SDS011;54478;48.684;20.114;2023-03-30T11:21:03;6.97;;;2.67;;
63120;SDS011;54478;48.684;20.114;2023-03-30T11:26:16;7.95;;;3.28;;
63120;SDS011;54478;48.684;20.114;2023-03-30T11:28:56;7.13;;;2.78;;
63120;SDS011;54478;48.684;20.114;2023-03-30T11:34:47;12.30;;;6.38;;
63120;SDS011;54478;48.684;20.114;2023-03-30T11:37:24;6.65;;;3.65;;
63120;SDS011;54478;48.684;20.114;2023-03-30T11:39:58;8.95;;;4.15;;
63120;SDS011;54478;48.684;20.114;2023-03-30T11:42:38;11.90;;;5.35;;
63120;SDS011;54478;48.684;20.114;2023-03-30T11:45:15;9.68;;;3.38;;
63120;SDS011;54478;48.684;20.114;2023-03-30T11:53:19;7.22;;;3.58;;
63120;SDS011;54478;48.684;20.114;2023-03-30T12:07:25;28.52;;;8.02;;
63120;SDS011;54478;48.684;20.114;2023-03-30T12:10:02;5.20;;;3.05;;
63120;SDS011;54478;48.684;20.114;2023-03-30T12:12:36;15.02;;;5.13;;
63120;SDS011;54478;48.684;20.114;2023-03-30T12:18:04;16.10;;;5.82;;
63120;SDS011;54478;48.684;20.114;2023-03-30T12:20:52;14.38;;;5.38;;
63120;SDS011;54478;48.684;20.114;2023-03-30T12:28:47;7.87;;;4.37;;
63120;SDS011;54478;48.684;20.114;2023-03-30T12:34:29;14.77;;;4.40;;
63120;SDS011;54478;48.684;20.114;2023-03-30T12:37:04;10.73;;;3.75;;
63120;SDS011;54478;48.684;20.114;2023-03-30T12:55:47;10.98;;;3.25;;
63120;SDS011;54478;48.684;20.114;2023-03-30T13:04:08;4.38;;;2.97;;
63120;SDS011;54478;48.684;20.114;2023-03-30T13:06:38;5.75;;;3.20;;
63120;SDS011;54478;48.684;20.114;2023-03-30T13:11:43;4.80;;;3.30;;
63120;SDS011;54478;48.684;20.114;2023-03-30T13:19:27;8.82;;;3.47;;
63120;SDS011;54478;48.684;20.114;2023-03-30T13:29:55;8.82;;;4.18;;
63120;SDS011;54478;48.684;20.114;2023-03-30T13:32:29;7.10;;;3.85;;
63120;SDS011;54478;48.684;20.114;2023-03-30T13:40:42;7.40;;;4.28;;
63120;SDS011;54478;48.684;20.114;2023-03-30T13:46:20;7.60;;;3.65;;
63120;SDS011;54478;48.684;20.114;2023-03-30T13:51:45;10.63;;;3.83;;
63120;SDS011;54478;48.684;20.114;2023-03-30T13:54:13;8.07;;;3.60;;
63120;SDS011;54478;48.684;20.114;2023-03-30T13:59:44;5.90;;;3.67;;
63120;SDS011;54478;48.684;20.114;2023-03-30T14:04:46;8.25;;;3.60;;
63120;SDS011;54478;48.684;20.114;2023-03-30T14:07:17;5.68;;;3.67;;
63120;SDS011;54478;48.684;20.114;2023-03-30T14:12:31;8.82;;;4.07;;
63120;SDS011;54478;48.684;20.114;2023-03-30T14:14:58;7.18;;;3.75;;
63120;SDS011;54478;48.684;20.114;2023-03-30T14:17:23;7.72;;;3.95;;
63120;SDS011;54478;48.684;20.114;2023-03-30T14:20:01;9.23;;;4.28;;
63120;SDS011;54478;48.684;20.114;2023-03-30T14:22:44;8.88;;;4.00;;
63120;SDS011;54478;48.684;20.114;2023-03-30T14:25:21;10.93;;;4.57;;
63120;SDS011;54478;48.684;20.114;2023-03-30T14:28:14;7.88;;;3.60;;
63120;SDS011;54478;48.684;20.114;2023-03-30T14:30:48;11.45;;;3.80;;
63120;SDS011;54478;48.684;20.114;2023-03-30T14:33:17;21.95;;;4.65;;
63120;SDS011;54478;48.684;20.114;2023-03-30T14:35:45;6.97;;;3.95;;
63120;SDS011;54478;48.684;20.114;2023-03-30T14:38:19;8.38;;;3.65;;
63120;SDS011;54478;48.684;20.114;2023-03-30T14:40:49;12.45;;;4.45;;
63120;SDS011;54478;48.684;20.114;2023-03-30T14:43:19;12.95;;;4.88;;
63120;SDS011;54478;48.684;20.114;2023-03-30T14:45:48;11.30;;;4.88;;
63120;SDS011;54478;48.684;20.114;2023-03-30T14:48:30;12.65;;;4.88;;
63120;SDS011;54478;48.684;20.114;2023-03-30T14:50:57;9.98;;;4.43;;
63120;SDS011;54478;48.684;20.114;2023-03-30T14:53:28;8.00;;;3.97;;
63120;SDS011;54478;48.684;20.114;2023-03-30T14:55:58;9.48;;;4.05;;
63120;SDS011;54478;48.684;20.114;2023-03-30T14:58:31;7.95;;;4.47;;
63120;SDS011;54478;48.684;20.114;2023-03-30T15:01:00;8.90;;;3.83;;
63120;SDS011;54478;48.684;20.114;2023-03-30T15:03:34;8.80;;;4.43;;
63120;SDS011;54478;48.684;20.114;2023-03-30T15:06:01;16.25;;;5.10;;
63120;SDS011;54478;48.684;20.114;2023-03-30T15:08:32;10.20;;;4.68;;
63120;SDS011;54478;48.684;20.114;2023-03-30T15:11:08;9.55;;;5.10;;
63120;SDS011;54478;48.684;20.114;2023-03-30T15:13:47;10.88;;;4.40;;
63120;SDS011;54478;48.684;20.114;2023-03-30T15:16:21;9.52;;;4.35;;
63120;SDS011;54478;48.684;20.114;2023-03-30T15:18:58;8.75;;;4.45;;
63120;SDS011;54478;48.684;20.114;2023-03-30T15:21:29;7.90;;;4.55;;
63120;SDS011;54478;48.684;20.114;2023-03-30T15:24:00;9.18;;;4.53;;
63120;SDS011;54478;48.684;20.114;2023-03-30T15:26:29;6.85;;;4.32;;
63120;SDS011;54478;48.684;20.114;2023-03-30T15:28:58;8.93;;;4.43;;
63120;SDS011;54478;48.684;20.114;2023-03-30T15:31:27;9.00;;;4.55;;
63120;SDS011;54478;48.684;20.114;2023-03-30T15:33:56;9.27;;;4.40;;
63120;SDS011;54478;48.684;20.114;2023-03-30T15:36:35;9.43;;;4.57;;
63120;SDS011;54478;48.684;20.114;2023-03-30T15:39:18;7.75;;;4.75;;
63120;SDS011;54478;48.684;20.114;2023-03-30T15:41:57;13.73;;;4.68;;
63120;SDS011;54478;48.684;20.114;2023-03-30T15:44:31;11.23;;;5.30;;
63120;SDS011;54478;48.684;20.114;2023-03-30T15:47:02;8.80;;;4.82;;
63120;SDS011;54478;48.684;20.114;2023-03-30T15:49:42;9.18;;;4.82;;
63120;SDS011;54478;48.684;20.114;2023-03-30T15:52:11;11.85;;;4.68;;
63120;SDS011;54478;48.684;20.114;2023-03-30T15:55:01;9.25;;;5.07;;
63120;SDS011;54478;48.684;20.114;2023-03-30T15:57:47;13.32;;;6.20;;
63120;SDS011;54478;48.684;20.114;2023-03-30T16:00:20;13.35;;;4.50;;
63120;SDS011;54478;48.684;20.114;2023-03-30T16:02:51;11.32;;;5.30;;
63120;SDS011;54478;48.684;20.114;2023-03-30T16:05:25;22.33;;;9.85;;
63120;SDS011;54478;48.684;20.114;2023-03-30T16:07:53;16.77;;;7.70;;
63120;SDS011;54478;48.684;20.114;2023-03-30T16:10:26;20.42;;;9.32;;
63120;SDS011;54478;48.684;20.114;2023-03-30T16:12:54;17.10;;;7.28;;
63120;SDS011;54478;48.684;20.114;2023-03-30T16:15:22;13.85;;;6.90;;
63120;SDS011;54478;48.684;20.114;2023-03-30T16:17:52;10.07;;;5.38;;
63120;SDS011;54478;48.684;20.114;2023-03-30T16:20:22;12.18;;;6.28;;
63120;SDS011;54478;48.684;20.114;2023-03-30T16:22:52;11.30;;;4.88;;
63120;SDS011;54478;48.684;20.114;2023-03-30T16:25:22;13.25;;;6.63;;
63120;SDS011;54478;48.684;20.114;2023-03-30T16:27:52;14.65;;;7.13;;
63120;SDS011;54478;48.684;20.114;2023-03-30T16:30:26;10.23;;;6.25;;
63120;SDS011;54478;48.684;20.114;2023-03-30T16:32:55;17.40;;;6.57;;
63120;SDS011;54478;48.684;20.114;2023-03-30T16:35:23;9.23;;;5.20;;
63120;SDS011;54478;48.684;20.114;2023-03-30T16:37:51;12.98;;;6.60;;
63120;SDS011;54478;48.684;20.114;2023-03-30T16:40:24;11.27;;;4.95;;
63120;SDS011;54478;48.684;20.114;2023-03-30T16:42:58;10.45;;;4.95;;
63120;SDS011;54478;48.684;20.114;2023-03-30T16:45:27;10.45;;;5.28;;
63120;SDS011;54478;48.684;20.114;2023-03-30T16:47:55;8.57;;;3.53;;
63120;SDS011;54478;48.684;20.114;2023-03-30T16:50:35;12.18;;;5.22;;
63120;SDS011;54478;48.684;20.114;2023-03-30T16:53:02;10.90;;;5.50;;
63120;SDS011;54478;48.684;20.114;2023-03-30T16:55:32;13.27;;;6.47;;
63120;SDS011;54478;48.684;20.114;2023-03-30T16:58:00;13.20;;;5.90;;
63120;SDS011;54478;48.684;20.114;2023-03-30T17:00:35;9.80;;;5.10;;
63120;SDS011;54478;48.684;20.114;2023-03-30T17:03:04;13.93;;;6.22;;
63120;SDS011;54478;48.684;20.114;2023-03-30T17:05:32;12.98;;;6.22;;
63120;SDS011;54478;48.684;20.114;2023-03-30T17:08:05;19.10;;;7.72;;
63120;SDS011;54478;48.684;20.114;2023-03-30T17:10:39;15.73;;;8.15;;
63120;SDS011;54478;48.684;20.114;2023-03-30T17:13:05;16.08;;;8.73;;
63120;SDS011;54478;48.684;20.114;2023-03-30T17:15:35;13.73;;;7.15;;
63120;SDS011;54478;48.684;20.114;2023-03-30T17:18:05;24.90;;;12.23;;
63120;SDS011;54478;48.684;20.114;2023-03-30T17:20:41;24.55;;;12.18;;
63120;SDS011;54478;48.684;20.114;2023-03-30T17:23:13;18.10;;;10.20;;
63120;SDS011;54478;48.684;20.114;2023-03-30T17:25:43;19.35;;;9.50;;
63120;SDS011;54478;48.684;20.114;2023-03-30T17:28:20;14.93;;;8.70;;
63120;SDS011;54478;48.684;20.114;2023-03-30T17:30:51;19.52;;;11.27;;
63120;SDS011;54478;48.684;20.114;2023-03-30T17:33:18;21.58;;;12.32;;
63120;SDS011;54478;48.684;20.114;2023-03-30T17:36:03;19.33;;;11.00;;
63120;SDS011;54478;48.684;20.114;2023-03-30T17:38:51;13.63;;;7.22;;
63120;SDS011;54478;48.684;20.114;2023-03-30T17:41:20;11.77;;;7.10;;
63120;SDS011;54478;48.684;20.114;2023-03-30T17:43:49;15.93;;;7.25;;
63120;SDS011;54478;48.684;20.114;2023-03-30T17:46:16;23.17;;;11.30;;
63120;SDS011;54478;48.684;20.114;2023-03-30T17:48:45;19.33;;;8.90;;